Time;durP1;ratioP1;P1;durP2;ratioP2;P2;SDS_P1;SDS_P2;PMS_P1;PMS_P2;Temp;Humidity;BMP_temperature;BMP_pressure;BME280_temperature;BME280_humidity;BME280_pressure;Samples;Min_cycle;Max_cycle;Signal;HPM_P1;HPM_P2
2023/09/11 00:00:39;;;;;;;25.00;15.20;;;;;;;23.21;87.28;100910.16;7353486;19;20019;-61
2023/09/11 00:03:06;;;;;;;25.17;15.45;;;;;;;23.14;87.70;100920.22;7353905;19;20405;-60
2023/09/11 00:05:33;;;;;;;26.88;16.50;;;;;;;23.06;87.86;100915.16;7344539;19;20362;-62
2023/09/11 00:08:01;;;;;;;25.52;15.82;;;;;;;23.02;88.73;100917.50;7332561;19;20027;-61
2023/09/11 00:10:30;;;;;;;31.05;17.65;;;;;;;22.99;89.11;100917.97;7353801;19;20019;-61
2023/09/11 00:12:57;;;;;;;28.27;15.80;;;;;;;22.99;88.96;100914.47;7353397;19;20013;-61
2023/09/11 00:15:24;;;;;;;30.95;18.05;;;;;;;23.03;89.30;100913.78;7360619;19;21295;-61
2023/09/11 00:17:52;;;;;;;30.20;17.55;;;;;;;23.06;89.04;100914.38;7357531;19;20014;-61
2023/09/11 00:20:19;;;;;;;32.22;18.92;;;;;;;23.05;88.73;100913.56;7352304;19;20500;-61
2023/09/11 00:22:47;;;;;;;32.72;19.25;;;;;;;23.00;88.80;100908.88;7350088;19;20650;-67
2023/09/11 00:25:14;;;;;;;36.28;19.73;;;;;;;22.93;88.78;100907.34;7356988;19;20025;-62
2023/09/11 00:27:42;;;;;;;35.05;18.98;;;;;;;22.88;89.22;100907.22;7351647;19;20017;-60
2023/09/11 00:30:10;;;;;;;38.97;19.27;;;;;;;22.81;89.31;100898.44;7355686;19;20625;-61
2023/09/11 00:32:37;;;;;;;36.00;19.13;;;;;;;22.76;90.05;100895.66;7355061;19;20353;-61
2023/09/11 00:35:05;;;;;;;43.30;21.25;;;;;;;22.68;89.70;100893.28;7333827;19;20345;-61
2023/09/11 00:37:32;;;;;;;37.70;19.45;;;;;;;22.60;90.44;100900.59;7349405;19;20011;-61
2023/09/11 00:39:59;;;;;;;37.90;21.45;;;;;;;22.57;91.05;100894.88;7351201;19;20933;-64
2023/09/11 00:42:26;;;;;;;36.15;20.33;;;;;;;22.56;91.48;100894.06;7356038;19;20022;-61
2023/09/11 00:44:54;;;;;;;37.13;20.42;;;;;;;22.54;91.19;100895.34;7354758;19;20041;-61
2023/09/11 00:47:21;;;;;;;40.78;21.27;;;;;;;22.58;92.33;100888.47;7354708;19;20195;-63
2023/09/11 00:49:49;;;;;;;37.47;20.20;;;;;;;22.63;92.69;100891.28;7352989;19;20630;-62
2023/09/11 00:52:16;;;;;;;35.97;21.15;;;;;;;22.67;91.75;100884.41;7354153;19;20355;-60
2023/09/11 00:54:43;;;;;;;37.88;21.40;;;;;;;22.64;90.88;100884.88;7355155;19;20019;-61
2023/09/11 00:57:11;;;;;;;35.85;19.75;;;;;;;22.63;91.36;100883.25;7351082;19;20023;-62
2023/09/11 00:59:38;;;;;;;42.22;21.20;;;;;;;22.66;91.01;100885.44;7337311;19;20011;-61
2023/09/11 01:02:06;;;;;;;42.42;21.45;;;;;;;22.66;90.77;100880.09;7353175;19;20014;-60
2023/09/11 01:04:34;;;;;;;45.58;23.58;;;;;;;22.66;90.60;100882.75;7357431;19;20048;-62
2023/09/11 01:07:02;;;;;;;44.83;23.35;;;;;;;22.64;90.99;100879.50;7355428;19;20022;-61
2023/09/11 01:09:29;;;;;;;40.65;22.00;;;;;;;22.65;91.51;100881.16;7359643;19;20015;-60
2023/09/11 01:11:56;;;;;;;43.15;22.40;;;;;;;22.65;90.82;100873.09;7350690;19;20011;-60
2023/09/11 01:14:23;;;;;;;45.05;22.67;;;;;;;22.63;90.86;100871.69;7360726;19;20507;-61
2023/09/11 01:17:02;;;;;;;40.28;22.80;;;;;;;22.60;90.97;100878.34;7361665;19;20637;-61
2023/09/11 01:19:50;;;;;;;39.55;22.55;;;;;;;22.63;91.21;100879.75;7357250;19;20634;-60
2023/09/11 01:22:28;;;;;;;45.75;22.75;;;;;;;22.60;91.42;100871.09;7358694;19;20062;-61
2023/09/11 01:25:04;;;;;;;47.85;24.58;;;;;;;22.57;91.28;100866.19;7340577;19;20770;-60
2023/09/11 01:27:43;;;;;;;45.45;22.75;;;;;;;22.60;92.15;100873.78;7353256;19;20015;-62
2023/09/11 01:30:12;;;;;;;43.90;21.55;;;;;;;22.63;92.40;100875.19;7362341;19;20021;-60
2023/09/11 01:32:41;;;;;;;42.83;21.80;;;;;;;22.65;91.20;100873.09;7355473;19;20014;-60
2023/09/11 01:35:08;;;;;;;43.80;21.75;;;;;;;22.68;91.19;100866.44;7356871;19;20017;-61
2023/09/11 01:37:35;;;;;;;41.38;22.83;;;;;;;22.69;91.82;100879.63;7354250;19;20022;-60
2023/09/11 01:40:04;;;;;;;40.50;20.75;;;;;;;22.70;91.09;100877.78;7361190;19;20014;-61
2023/09/11 01:42:36;;;;;;;42.80;21.92;;;;;;;22.69;91.16;100879.63;7354969;19;20525;-60
2023/09/11 01:45:05;;;;;;;41.40;21.55;;;;;;;22.69;90.55;100881.50;7357001;19;20022;-60
2023/09/11 01:47:33;;;;;;;40.70;22.13;;;;;;;22.66;90.54;100882.75;7359552;19;20390;-61
2023/09/11 01:50:03;;;;;;;41.35;22.42;;;;;;;22.64;91.21;100884.06;7359913;19;20082;-61
2023/09/11 01:52:33;;;;;;;40.13;22.20;;;;;;;22.52;91.10;100882.16;7336813;19;20015;-61
2023/09/11 01:55:02;;;;;;;35.50;20.30;;;;;;;22.48;91.88;100885.53;7362429;19;20022;-61
2023/09/11 01:57:29;;;;;;;42.50;21.38;;;;;;;22.46;92.17;100883.06;7354949;19;20094;-61
2023/09/11 01:59:56;;;;;;;35.60;20.17;;;;;;;22.47;91.85;100876.66;7360027;19;20454;-61
2023/09/11 02:02:23;;;;;;;37.47;20.17;;;;;;;22.48;91.86;100872.94;7354950;19;20086;-62
2023/09/11 02:04:51;;;;;;;37.05;20.45;;;;;;;22.52;92.39;100879.47;7360595;19;20014;-61
2023/09/11 02:07:18;;;;;;;43.20;21.60;;;;;;;22.55;92.14;100875.53;7357757;19;20120;-61
2023/09/11 02:09:45;;;;;;;36.97;21.60;;;;;;;22.58;92.21;100883.13;7356213;19;20717;-61
2023/09/11 02:12:12;;;;;;;38.22;20.67;;;;;;;22.59;92.02;100874.84;7353947;19;20592;-60
2023/09/11 02:14:40;;;;;;;31.83;18.92;;;;;;;22.62;91.52;100873.56;7357694;19;20014;-61
2023/09/11 02:17:07;;;;;;;33.63;18.95;;;;;;;22.63;91.78;100882.41;7341180;19;20623;-62
2023/09/11 02:19:34;;;;;;;30.73;18.35;;;;;;;22.63;91.57;100888.59;7359170;19;20090;-62
2023/09/11 02:22:01;;;;;;;28.98;17.80;;;;;;;22.61;91.50;100875.41;7354936;19;20018;-62
2023/09/11 02:24:29;;;;;;;28.23;17.88;;;;;;;22.59;91.30;100874.03;7360125;19;20035;-61
2023/09/11 02:26:57;;;;;;;29.00;16.60;;;;;;;22.54;91.61;100873.91;7353746;19;20022;-61
2023/09/11 02:29:24;;;;;;;31.25;17.58;;;;;;;22.51;92.33;100871.66;7359334;19;20038;-62
2023/09/11 02:31:51;;;;;;;29.85;16.92;;;;;;;22.45;91.95;100872.59;7358221;19;20023;-61
2023/09/11 02:34:19;;;;;;;33.05;18.27;;;;;;;22.42;92.43;100881.91;7359416;19;20317;-61
2023/09/11 02:36:46;;;;;;;31.27;16.70;;;;;;;22.42;92.27;100873.03;7354190;19;20042;-61
2023/09/11 02:39:13;;;;;;;32.08;17.98;;;;;;;22.42;92.45;100873.03;7355737;19;20014;-60
2023/09/11 02:41:41;;;;;;;32.42;17.50;;;;;;;22.38;92.05;100872.69;7344667;19;20447;-62
2023/09/11 02:44:08;;;;;;;28.17;17.23;;;;;;;22.40;92.78;100875.16;7350654;19;20025;-63
2023/09/11 02:46:35;;;;;;;31.50;19.00;;;;;;;22.32;91.93;100878.16;7358542;19;20361;-60
2023/09/11 02:49:02;;;;;;;31.38;18.83;;;;;;;22.24;92.94;100876.63;7357479;19;20026;-60
2023/09/11 02:51:30;;;;;;;31.75;18.15;;;;;;;22.17;93.67;100874.03;7358735;19;20048;-61
2023/09/11 02:53:58;;;;;;;37.28;20.05;;;;;;;22.16;94.03;100868.88;7357380;19;20011;-61
2023/09/11 02:56:25;;;;;;;30.42;17.73;;;;;;;22.18;94.08;100867.63;7358396;19;20401;-64
2023/09/11 02:58:52;;;;;;;32.55;19.25;;;;;;;22.21;94.08;100863.66;7359930;19;20042;-61
2023/09/11 03:01:20;;;;;;;28.10;17.33;;;;;;;22.21;93.92;100869.00;7354228;19;20039;-61
2023/09/11 03:03:47;;;;;;;32.55;17.65;;;;;;;22.24;93.33;100868.56;7357932;19;20015;-61
2023/09/11 03:06:14;;;;;;;30.75;17.92;;;;;;;22.26;93.37;100871.00;7353021;19;20313;-62
2023/09/11 03:08:41;;;;;;;31.15;17.85;;;;;;;22.26;92.92;100868.31;7341483;19;20038;-62
2023/09/11 03:11:09;;;;;;;27.67;16.20;;;;;;;22.29;92.80;100879.44;7357096;19;20085;-61
2023/09/11 03:13:37;;;;;;;28.13;16.35;;;;;;;22.31;92.88;100879.19;7353276;19;20025;-60
2023/09/11 03:16:09;;;;;;;30.30;17.02;;;;;;;22.29;92.57;100863.34;7351971;19;20042;-67
2023/09/11 03:18:37;;;;;;;26.85;16.23;;;;;;;22.30;92.13;100873.00;7358974;19;20040;-62
2023/09/11 03:21:07;;;;;;;24.90;15.75;;;;;;;22.28;91.82;100872.44;7350962;19;20030;-61
2023/09/11 03:23:35;;;;;;;24.63;15.20;;;;;;;22.28;92.03;100861.69;7358371;19;20014;-61
2023/09/11 03:26:02;;;;;;;26.70;16.10;;;;;;;22.30;92.06;100862.28;7356336;19;20053;-60
2023/09/11 03:28:30;;;;;;;29.58;15.55;;;;;;;22.27;92.02;100861.91;7353550;19;20011;-61
2023/09/11 03:31:03;;;;;;;28.70;16.63;;;;;;;22.27;92.97;100868.09;7357205;19;20026;-60
2023/09/11 03:33:30;;;;;;;26.60;16.27;;;;;;;22.23;92.60;100858.06;7336651;19;20018;-61
2023/09/11 03:35:59;;;;;;;25.20;15.30;;;;;;;22.16;92.25;100847.44;7356095;19;20049;-63
2023/09/11 03:38:26;;;;;;;27.35;14.95;;;;;;;22.09;92.01;100852.91;7353697;19;20018;-61
2023/09/11 03:40:53;;;;;;;22.02;13.35;;;;;;;22.13;92.84;100855.94;7352923;19;20380;-61
2023/09/11 03:43:20;;;;;;;25.05;14.05;;;;;;;22.13;91.99;100856.75;7355093;19;20014;-61
2023/09/11 03:45:48;;;;;;;21.40;13.07;;;;;;;22.16;91.98;100850.13;7359590;19;20019;-61
2023/09/11 03:48:18;;;;;;;24.83;13.40;;;;;;;22.18;92.18;100848.03;7352998;19;20030;-61
2023/09/11 03:50:45;;;;;;;23.83;13.55;;;;;;;22.20;92.36;100848.59;7355861;19;20014;-61
2023/09/11 03:53:12;;;;;;;24.25;13.00;;;;;;;22.19;92.49;100852.34;7354215;19;20677;-61
2023/09/11 03:55:40;;;;;;;24.42;13.20;;;;;;;22.21;91.87;100847.56;7350279;19;20035;-61
2023/09/11 03:58:07;;;;;;;24.20;13.07;;;;;;;22.23;91.58;100844.66;7353716;19;20018;-61
2023/09/11 04:00:34;;;;;;;24.17;12.95;;;;;;;22.23;91.43;100836.63;7337997;19;21316;-60
2023/09/11 04:03:03;;;;;;;21.98;12.48;;;;;;;22.18;90.74;100835.44;7355194;19;20021;-61
2023/09/11 04:05:33;;;;;;;19.85;12.30;;;;;;;22.17;91.00;100841.84;7351312;19;20066;-61
2023/09/11 04:08:00;;;;;;;19.08;11.88;;;;;;;22.18;91.05;100845.34;7356746;19;20493;-60
2023/09/11 04:10:28;;;;;;;21.15;12.95;;;;;;;22.20;91.21;100845.13;7353415;19;20660;-61
2023/09/11 04:12:55;;;;;;;19.98;12.00;;;;;;;22.20;91.32;100845.91;7353465;19;20555;-61
2023/09/11 04:15:22;;;;;;;22.85;11.00;;;;;;;22.24;91.16;100841.75;7351091;19;20022;-61
2023/09/11 04:17:50;;;;;;;20.23;12.40;;;;;;;22.24;90.49;100840.94;7350633;19;20475;-62
2023/09/11 04:20:17;;;;;;;17.27;10.35;;;;;;;22.22;90.29;100843.84;7355529;19;20109;-60
2023/09/11 04:22:44;;;;;;;21.48;11.27;;;;;;;22.23;90.53;100840.13;7355547;19;20025;-61
2023/09/11 04:25:11;;;;;;;18.85;11.30;;;;;;;22.25;90.08;100847.94;7333810;19;20071;-62
2023/09/11 04:27:38;;;;;;;19.80;10.70;;;;;;;22.24;90.30;100851.66;7350606;19;20394;-61
2023/09/11 04:30:06;;;;;;;18.30;10.23;;;;;;;22.24;90.07;100857.03;7356639;19;20039;-61
2023/09/11 04:32:34;;;;;;;18.55;10.57;;;;;;;22.25;90.63;100846.06;7354706;19;20019;-62
2023/09/11 04:35:01;;;;;;;18.58;10.48;;;;;;;22.28;90.13;100852.84;7354719;19;20021;-62
2023/09/11 04:37:30;;;;;;;18.73;10.63;;;;;;;22.30;89.86;100854.22;7351186;19;20010;-60
2023/09/11 04:39:58;;;;;;;18.58;10.15;;;;;;;22.31;89.84;100849.69;7356710;19;20611;-61
2023/09/11 04:42:25;;;;;;;15.57;10.23;;;;;;;22.26;89.43;100847.69;7358304;19;20018;-61
2023/09/11 04:44:58;;;;;;;16.63;10.13;;;;;;;22.25;89.13;100848.72;7357949;19;20045;-60
2023/09/11 04:47:30;;;;;;;20.13;10.73;;;;;;;22.27;89.42;100852.00;7363276;19;21176;-61
2023/09/11 04:49:58;;;;;;;20.65;11.18;;;;;;;22.29;89.19;100854.47;7357696;19;20709;-61
2023/09/11 04:52:25;;;;;;;19.50;9.88;;;;;;;22.30;89.26;100850.75;7341050;19;20150;-61
2023/09/11 04:54:53;;;;;;;18.90;10.95;;;;;;;22.34;89.75;100855.44;7361494;19;20447;-63
2023/09/11 04:57:20;;;;;;;20.90;10.73;;;;;;;22.36;89.11;100860.53;7358363;19;20019;-62
2023/09/11 04:59:48;;;;;;;17.65;10.38;;;;;;;22.38;88.43;100855.78;7359684;19;20031;-60
2023/09/11 05:02:15;;;;;;;18.98;10.82;;;;;;;22.39;88.58;100860.09;7362294;19;20025;-62
2023/09/11 05:04:42;;;;;;;21.40;11.80;;;;;;;22.41;89.90;100861.50;7358711;19;20014;-61
2023/09/11 05:07:09;;;;;;;20.27;11.73;;;;;;;22.38;89.33;100861.16;7359416;19;20022;-61
2023/09/11 05:09:38;;;;;;;19.60;11.07;;;;;;;22.32;88.96;100862.06;7362789;19;20570;-61
2023/09/11 05:12:06;;;;;;;21.88;11.20;;;;;;;22.28;89.36;100869.75;7355248;19;20021;-61
2023/09/11 05:14:33;;;;;;;19.92;11.55;;;;;;;22.28;89.99;100875.09;7357530;19;20018;-62
2023/09/11 05:17:00;;;;;;;20.73;11.40;;;;;;;22.26;89.48;100876.38;7334444;19;20018;-61
2023/09/11 05:19:27;;;;;;;23.40;11.68;;;;;;;22.25;89.70;100872.88;7358666;19;20011;-62
2023/09/11 05:21:54;;;;;;;20.98;13.65;;;;;;;22.27;90.02;100869.97;7357012;19;20054;-61
2023/09/11 05:24:22;;;;;;;18.90;11.55;;;;;;;22.28;90.14;100871.59;7358504;19;20479;-60
2023/09/11 05:26:49;;;;;;;23.35;11.98;;;;;;;22.27;90.10;100873.47;7357881;19;20025;-61
2023/09/11 05:29:16;;;;;;;19.20;11.35;;;;;;;22.23;89.96;100872.28;7364100;19;20025;-62
2023/09/11 05:31:43;;;;;;;25.73;11.95;;;;;;;22.17;89.36;100883.94;7358638;19;20122;-60
2023/09/11 05:34:11;;;;;;;20.70;13.80;;;;;;;22.17;91.07;100882.06;7356442;19;20010;-61
2023/09/11 05:36:38;;;;;;;18.98;11.52;;;;;;;22.15;91.12;100880.63;7356969;19;20194;-61
2023/09/11 05:39:05;;;;;;;16.90;11.40;;;;;;;22.15;91.36;100883.31;7359089;19;20051;-61
2023/09/11 05:41:32;;;;;;;21.80;12.05;;;;;;;22.14;90.63;100877.16;7353913;19;20086;-63
2023/09/11 05:44:00;;;;;;;17.77;10.50;;;;;;;22.08;90.54;100878.06;7336747;19;20042;-60
2023/09/11 05:46:27;;;;;;;21.08;11.38;;;;;;;22.07;91.14;100876.44;7356994;19;20700;-60
2023/09/11 05:48:54;;;;;;;18.92;10.93;;;;;;;22.08;91.24;100874.56;7356003;19;20019;-62
2023/09/11 05:51:21;;;;;;;18.85;11.07;;;;;;;22.08;90.93;100874.56;7354917;19;20018;-61
2023/09/11 05:53:49;;;;;;;20.00;10.88;;;;;;;22.06;90.75;100874.78;7357881;19;20022;-61
2023/09/11 05:56:18;;;;;;;20.30;11.65;;;;;;;22.07;91.16;100875.59;7356412;19;20454;-63
2023/09/11 05:58:45;;;;;;;18.65;11.02;;;;;;;22.06;90.89;100877.47;7362860;19;20974;-61
2023/09/11 06:01:13;;;;;;;21.83;11.93;;;;;;;22.04;91.05;100878.75;7358845;19;20015;-60
2023/09/11 06:03:41;;;;;;;18.55;10.82;;;;;;;22.05;91.84;100883.03;7359277;19;20018;-62
2023/09/11 06:06:09;;;;;;;21.55;10.50;;;;;;;22.09;92.12;100884.25;7355149;19;20049;-60
2023/09/11 06:08:36;;;;;;;20.15;11.82;;;;;;;22.11;91.51;100887.50;7346333;19;20014;-60
2023/09/11 06:11:03;;;;;;;19.67;10.10;;;;;;;22.13;91.70;100888.09;7358334;19;20022;-61
2023/09/11 06:13:33;;;;;;;19.83;11.05;;;;;;;22.14;91.26;100889.75;7358794;19;20014;-60
2023/09/11 06:16:00;;;;;;;16.40;10.85;;;;;;;22.17;91.36;100895.47;7354769;19;20487;-61
2023/09/11 06:18:27;;;;;;;22.42;12.55;;;;;;;22.18;91.42;100902.47;7355706;19;20337;-60
2023/09/11 06:20:54;;;;;;;17.05;9.98;;;;;;;22.21;91.43;100897.69;7358675;19;20010;-60
2023/09/11 06:23:22;;;;;;;20.70;11.40;;;;;;;22.22;90.32;100897.47;7356939;19;20013;-61
2023/09/11 06:25:49;;;;;;;18.95;10.38;;;;;;;22.21;89.61;100895.00;7357482;19;21688;-61
2023/09/11 06:28:17;;;;;;;21.27;10.40;;;;;;;22.20;90.48;100902.22;7356664;19;20698;-61
2023/09/11 06:30:44;;;;;;;19.40;10.88;;;;;;;22.22;89.93;100897.47;7359058;19;20011;-61
2023/09/11 06:33:11;;;;;;;19.42;10.88;;;;;;;22.25;90.56;100902.38;7346038;19;20011;-61
2023/09/11 06:35:39;;;;;;;19.55;11.10;;;;;;;22.29;90.99;100900.88;7342777;19;20006;-61
2023/09/11 06:38:06;;;;;;;20.02;11.00;;;;;;;22.30;90.37;100899.03;7356694;19;20317;-60
2023/09/11 06:40:33;;;;;;;19.02;10.70;;;;;;;22.29;89.22;100894.69;7355632;19;20376;-61
2023/09/11 06:43:01;;;;;;;17.70;11.15;;;;;;;22.26;89.47;100898.63;7352908;19;20018;-61
2023/09/11 06:45:28;;;;;;;22.30;11.05;;;;;;;22.24;88.94;100890.03;7353967;19;20310;-60
2023/09/11 06:47:55;;;;;;;19.33;10.50;;;;;;;22.16;88.89;100891.16;7354969;19;20018;-61
2023/09/11 06:50:23;;;;;;;21.58;11.00;;;;;;;22.20;90.28;100899.53;7353362;19;20046;-60
2023/09/11 06:52:50;;;;;;;19.95;10.68;;;;;;;22.25;90.42;100906.94;7353591;19;20006;-62
2023/09/11 06:55:17;;;;;;;21.08;12.18;;;;;;;22.25;90.00;100902.38;7354197;19;20010;-62
2023/09/11 06:57:56;;;;;;;18.58;11.57;;;;;;;22.27;89.65;100911.00;7356157;19;20021;-62
2023/09/11 07:00:24;;;;;;;21.08;12.10;;;;;;;22.28;89.20;100914.50;7343512;19;20021;-62
2023/09/11 07:02:51;;;;;;;21.50;11.88;;;;;;;22.21;89.62;100922.63;7354757;19;20098;-61
2023/09/11 07:05:20;;;;;;;31.38;15.02;;;;;;;22.21;91.57;100914.59;7354508;19;20062;-61
2023/09/11 07:07:47;;;;;;;25.85;12.60;;;;;;;22.25;91.77;100923.81;7352928;19;20018;-61
2023/09/11 07:10:17;;;;;;;19.58;11.15;;;;;;;22.30;90.52;100923.94;7356493;19;20059;-62
2023/09/11 07:13:04;;;;;;;21.55;12.55;;;;;;;22.37;90.51;100929.22;7355979;19;20041;-62
2023/09/11 07:15:31;;;;;;;18.33;11.05;;;;;;;22.39;89.09;100929.84;7355479;19;20018;-62
2023/09/11 07:17:58;;;;;;;19.60;9.68;;;;;;;22.40;88.07;100926.13;7348359;19;20660;-62
2023/09/11 07:20:26;;;;;;;16.88;10.18;;;;;;;22.42;87.49;100935.56;7357635;19;20538;-61
2023/09/11 07:22:53;;;;;;;14.65;8.30;;;;;;;22.44;88.03;100929.97;7350098;19;20013;-62
2023/09/11 07:25:22;;;;;;;14.82;7.00;;;;;;;22.43;85.30;100931.81;7359597;19;20014;-61
2023/09/11 07:27:54;;;;;;;14.63;7.57;;;;;;;22.43;84.15;100936.38;7342668;19;20098;-61
2023/09/11 07:30:21;;;;;;;15.07;7.97;;;;;;;22.42;83.68;100940.09;7356256;19;20006;-62
2023/09/11 07:32:52;;;;;;;13.73;6.28;;;;;;;22.40;82.25;100947.56;7354163;19;20010;-60
2023/09/11 07:35:20;;;;;;;10.60;5.07;;;;;;;22.39;82.98;100940.56;7351540;19;20027;-61
2023/09/11 07:37:48;;;;;;;11.85;5.47;;;;;;;22.41;81.75;100936.59;7350843;19;20021;-61
2023/09/11 07:40:15;;;;;;;8.95;4.88;;;;;;;22.45;82.58;100948.50;7354872;19;20024;-60
2023/09/11 07:42:43;;;;;;;8.52;4.15;;;;;;;22.48;81.67;100948.06;7345873;19;20021;-61
2023/09/11 07:45:10;;;;;;;10.13;4.88;;;;;;;22.47;81.13;100943.72;7353426;19;20021;-61
2023/09/11 07:47:37;;;;;;;9.90;4.45;;;;;;;22.48;80.68;100948.06;7358264;19;20053;-61
2023/09/11 07:50:05;;;;;;;12.55;4.82;;;;;;;22.50;81.16;100950.53;7353041;19;20022;-60
2023/09/11 07:52:35;;;;;;;14.23;5.15;;;;;;;22.52;81.31;100951.91;7352009;19;20481;-60
2023/09/11 07:55:03;;;;;;;10.93;4.80;;;;;;;22.57;81.81;100957.41;7353928;19;20006;-61
2023/09/11 07:57:30;;;;;;;14.05;5.35;;;;;;;22.60;80.93;100958.84;7352963;19;20371;-61
2023/09/11 08:00:04;;;;;;;12.52;4.70;;;;;;;22.60;79.84;100956.94;7355882;19;20206;-60
2023/09/11 08:02:31;;;;;;;9.63;4.72;;;;;;;22.66;80.68;100959.75;7351984;19;20055;-63
2023/09/11 08:04:59;;;;;;;9.73;4.88;;;;;;;22.66;79.87;100962.44;7356892;19;20346;-62
2023/09/11 08:07:26;;;;;;;8.32;4.32;;;;;;;22.61;79.42;100960.44;7354383;19;20078;-60
2023/09/11 08:09:54;;;;;;;10.35;4.47;;;;;;;22.59;79.21;100955.34;7350311;19;20050;-61
2023/09/11 08:12:21;;;;;;;11.90;4.53;;;;;;;22.63;81.26;100958.38;7350366;19;20041;-61
2023/09/11 08:14:48;;;;;;;8.52;4.18;;;;;;;22.67;80.25;100956.03;7358391;19;20018;-61
2023/09/11 08:17:16;;;;;;;10.65;4.63;;;;;;;22.67;79.52;100961.41;7359039;19;20054;-61
2023/09/11 08:19:43;;;;;;;12.05;4.80;;;;;;;22.70;80.76;100958.28;7358104;19;20926;-62
2023/09/11 08:22:10;;;;;;;11.77;5.38;;;;;;;22.74;80.22;100957.63;7360197;19;20094;-61
2023/09/11 08:24:38;;;;;;;13.55;5.53;;;;;;;22.76;80.35;100963.56;7352101;19;20022;-61
2023/09/11 08:27:07;;;;;;;9.70;5.45;;;;;;;22.77;80.23;100962.50;7353648;19;20124;-61
2023/09/11 08:29:36;;;;;;;11.50;6.15;;;;;;;22.76;80.06;100970.78;7366683;19;20891;-61
2023/09/11 08:32:03;;;;;;;9.45;5.43;;;;;;;22.75;80.31;100977.22;7360844;19;20760;-61
2023/09/11 08:34:31;;;;;;;13.30;5.20;;;;;;;22.72;79.91;100972.28;7362444;19;20026;-60
2023/09/11 08:36:58;;;;;;;11.73;5.38;;;;;;;22.69;80.22;100970.06;7357928;19;20089;-62
2023/09/11 08:39:25;;;;;;;10.00;5.18;;;;;;;22.68;79.98;100965.72;7363974;19;20671;-62
2023/09/11 08:41:57;;;;;;;10.23;4.70;;;;;;;22.67;80.10;100961.41;7355384;19;20855;-62
2023/09/11 08:44:26;;;;;;;9.60;3.78;;;;;;;22.65;80.60;100969.69;7356717;19;20250;-61
2023/09/11 08:46:58;;;;;;;6.82;3.28;;;;;;;22.64;79.45;100968.06;7361123;19;20014;-62
2023/09/11 08:49:32;;;;;;;6.22;3.15;;;;;;;22.66;77.92;100974.00;7359354;19;20090;-61
2023/09/11 08:52:03;;;;;;;7.22;2.90;;;;;;;22.71;78.02;100974.16;7358048;19;20794;-62
2023/09/11 08:54:37;;;;;;;6.22;2.63;;;;;;;22.73;78.09;100977.44;7360731;19;20044;-62
2023/09/11 08:57:07;;;;;;;6.13;2.00;;;;;;;22.75;75.92;100972.69;7358968;19;20387;-61
2023/09/11 08:59:37;;;;;;;5.82;2.10;;;;;;;22.82;76.63;100977.94;7362007;19;20026;-61
2023/09/11 09:02:06;;;;;;;4.07;1.38;;;;;;;22.87;75.36;100980.75;7359511;19;20087;-61
2023/09/11 09:04:35;;;;;;;4.05;1.50;;;;;;;22.94;76.51;100976.09;7363101;19;20014;-61
2023/09/11 09:07:03;;;;;;;2.70;1.00;;;;;;;22.94;73.85;100968.88;7360279;19;20003;-60
2023/09/11 09:09:31;;;;;;;3.65;1.33;;;;;;;22.94;73.49;100966.19;7359932;19;20025;-60
2023/09/11 09:11:59;;;;;;;4.72;1.23;;;;;;;23.00;73.48;100967.13;7359709;19;20042;-61
2023/09/11 09:14:28;;;;;;;5.22;0.90;;;;;;;23.03;72.35;100964.78;7359650;19;20862;-61
2023/09/11 09:16:58;;;;;;;6.28;1.10;;;;;;;23.06;72.70;100965.38;7338829;19;20101;-60
2023/09/11 09:19:26;;;;;;;3.97;1.52;;;;;;;23.10;73.01;100963.88;7358647;19;20035;-61
2023/09/11 09:22:04;;;;;;;3.58;1.30;;;;;;;23.14;73.95;100965.03;7358739;19;20901;-61
2023/09/11 09:24:34;;;;;;;5.50;1.13;;;;;;;23.22;74.91;100962.00;7357661;19;20014;-61
2023/09/11 09:27:04;;;;;;;5.40;1.20;;;;;;;23.27;72.92;100962.13;7355878;19;20102;-61
2023/09/11 09:29:36;;;;;;;8.20;1.17;;;;;;;23.30;71.99;100964.34;7359483;19;20086;-60
2023/09/11 09:32:05;;;;;;;2.67;1.08;;;;;;;23.33;71.51;100962.00;7358242;19;20025;-60
2023/09/11 09:34:34;;;;;;;3.38;1.10;;;;;;;23.33;72.18;100966.56;7359215;19;20491;-62
2023/09/11 09:37:02;;;;;;;5.40;1.00;;;;;;;23.32;71.87;100964.91;7356339;19;20350;-61
2023/09/11 09:39:33;;;;;;;4.57;0.90;;;;;;;23.35;73.17;100965.28;7358057;19;20026;-62
2023/09/11 09:42:04;;;;;;;8.88;1.30;;;;;;;23.37;72.78;100957.81;7356681;19;20014;-63
2023/09/11 09:44:33;;;;;;;3.25;1.00;;;;;;;23.41;72.50;100964.38;7357953;19;21212;-61
2023/09/11 09:47:09;;;;;;;5.45;1.67;;;;;;;23.43;72.67;100959.56;7359338;19;20357;-62
2023/09/11 09:49:48;;;;;;;4.88;1.17;;;;;;;23.46;71.88;100961.00;7362888;19;20038;-62
2023/09/11 09:52:18;;;;;;;5.05;0.98;;;;;;;23.48;70.91;100958.06;7358313;19;20031;-65
2023/09/11 09:54:50;;;;;;;5.22;0.70;;;;;;;23.48;70.62;100958.06;7359422;19;20665;-61
2023/09/11 09:57:20;;;;;;;7.77;1.30;;;;;;;23.51;70.52;100957.59;7358085;19;20034;-62
2023/09/11 09:59:50;;;;;;;3.47;0.88;;;;;;;23.56;70.57;100939.72;7359620;19;20015;-60
2023/09/11 10:02:29;;;;;;;5.53;1.20;;;;;;;23.62;70.50;100943.34;7357545;19;20544;-61
2023/09/11 10:05:01;;;;;;;6.38;1.00;;;;;;;23.70;71.05;100938.44;7357009;19;20039;-61
2023/09/11 10:07:42;;;;;;;3.03;0.70;;;;;;;23.76;70.82;100936.66;7358823;19;20531;-61
2023/09/11 10:10:21;;;;;;;2.67;0.70;;;;;;;23.82;70.27;100946.47;7354267;19;20114;-61
2023/09/11 10:13:07;;;;;;;4.10;1.45;;;;;;;23.87;69.98;100942.00;7355691;19;20015;-62
2023/09/11 10:15:43;;;;;;;3.35;0.70;;;;;;;23.92;69.56;100935.94;7357179;19;20010;-62
2023/09/11 10:18:12;;;;;;;3.60;0.80;;;;;;;23.99;69.44;100933.91;7356528;19;20465;-62
2023/09/11 10:20:40;;;;;;;2.28;0.90;;;;;;;24.03;68.92;100937.75;7350361;19;20046;-62
2023/09/11 10:23:09;;;;;;;2.75;0.80;;;;;;;24.10;69.38;100940.31;7360407;19;20040;-61
2023/09/11 10:25:41;;;;;;;2.28;0.95;;;;;;;24.14;69.35;100930.69;7358233;19;20022;-61
2023/09/11 10:28:13;;;;;;;3.50;1.15;;;;;;;24.16;68.50;100932.09;7356457;19;20455;-61
2023/09/11 10:30:50;;;;;;;;;;;;;;;24.16;67.94;100933.97;7358302;19;20014;-61
2023/09/11 10:33:34;;;;;;;2.53;0.68;;;;;;;24.16;67.82;100925.91;7357576;19;19919;-62
2023/09/11 10:36:10;;;;;;;2.38;0.88;;;;;;;24.18;69.14;100927.31;7351299;19;20014;-61
2023/09/11 10:38:38;;;;;;;3.15;0.90;;;;;;;24.23;67.83;100922.03;7356938;19;20074;-61
2023/09/11 10:41:08;;;;;;;3.60;0.88;;;;;;;24.27;68.65;100920.53;7356621;19;20696;-61
2023/09/11 10:43:35;;;;;;;2.83;0.80;;;;;;;24.36;69.16;100914.72;7360211;19;20039;-61
2023/09/11 10:46:22;;;;;;;4.30;1.00;;;;;;;24.41;67.45;100910.25;7352561;19;20371;-61
2023/09/11 10:48:52;;;;;;;2.58;0.75;;;;;;;24.47;67.81;100908.50;7356202;19;20427;-61
2023/09/11 10:51:19;;;;;;;3.58;0.70;;;;;;;24.52;67.67;100908.56;7357481;19;20018;-62
2023/09/11 10:53:48;;;;;;;4.13;0.73;;;;;;;24.53;66.18;100896.75;7359172;19;20014;-60
2023/09/11 10:56:15;;;;;;;3.53;0.93;;;;;;;24.55;66.11;100900.81;7357296;19;20014;-61
2023/09/11 10:58:43;;;;;;;3.80;0.82;;;;;;;24.55;66.36;100903.50;7358745;19;20019;-62
2023/09/11 11:01:13;;;;;;;2.88;0.90;;;;;;;24.56;66.65;100901.63;7358948;19;20917;-60
2023/09/11 11:03:41;;;;;;;2.97;0.73;;;;;;;24.56;66.68;100904.34;7358037;19;20655;-62
2023/09/11 11:06:12;;;;;;;3.90;0.80;;;;;;;24.63;66.09;100899.63;7352509;19;20029;-62
2023/09/11 11:08:41;;;;;;;3.80;0.70;;;;;;;24.66;64.86;100897.25;7359622;19;20018;-65
2023/09/11 11:11:22;;;;;;;4.80;0.68;;;;;;;24.75;65.51;100892.28;7358849;19;20372;-62
2023/09/11 11:14:09;;;;;;;7.35;0.82;;;;;;;24.86;65.94;100898.63;7360515;19;20025;-61
2023/09/11 11:16:37;;;;;;;3.50;0.77;;;;;;;24.89;65.79;100898.97;7356024;19;20486;-62
2023/09/11 11:19:05;;;;;;;3.92;0.70;;;;;;;24.94;63.83;100895.56;7355841;19;20121;-61
2023/09/11 11:21:42;;;;;;;2.33;0.70;;;;;;;24.97;65.35;100903.16;7350817;19;20020;-61